createdAt,value
2023-03-31T00:01:55.477Z,62.98
2023-03-31T00:04:21.873Z,62.87
2023-03-31T00:06:48.522Z,62.80
2023-03-31T00:09:14.846Z,63.02
2023-03-31T00:11:41.194Z,62.94
2023-03-31T00:14:07.694Z,62.97
2023-03-31T00:16:34.330Z,63.02
2023-03-31T00:19:00.613Z,62.95
2023-03-31T00:21:26.913Z,62.86
2023-03-31T00:23:53.425Z,62.79
2023-03-31T00:26:20.020Z,62.90
2023-03-31T00:28:46.413Z,62.92
2023-03-31T00:31:13.413Z,62.96
2023-03-31T00:33:40.040Z,63.01
2023-03-31T00:36:06.934Z,62.99
2023-03-31T00:38:33.570Z,62.98
2023-03-31T00:41:00.409Z,62.64
2023-03-31T00:43:26.799Z,62.83
2023-03-31T00:45:53.784Z,62.71
2023-03-31T00:48:20.385Z,62.86
2023-03-31T00:50:46.919Z,62.72
2023-03-31T00:53:13.379Z,62.86
2023-03-31T00:55:39.751Z,62.77
2023-03-31T00:58:06.272Z,62.89
2023-03-31T01:00:32.663Z,62.86
2023-03-31T01:02:59.440Z,63.03
2023-03-31T01:05:26.590Z,63.02
2023-03-31T01:07:53.372Z,62.88
2023-03-31T01:10:20.119Z,62.94
2023-03-31T01:12:46.518Z,62.79
2023-03-31T01:15:12.991Z,62.88
2023-03-31T01:17:39.753Z,63.05
2023-03-31T01:20:06.078Z,62.77
2023-03-31T01:22:32.838Z,62.96
2023-03-31T01:24:59.707Z,62.79
2023-03-31T01:27:26.375Z,62.76
2023-03-31T01:29:52.846Z,62.76
2023-03-31T01:32:19.399Z,62.64
2023-03-31T01:34:46.125Z,63.02
2023-03-31T01:37:12.504Z,62.90
2023-03-31T01:39:39.024Z,62.59
2023-03-31T01:42:05.557Z,62.96
2023-03-31T01:44:32.104Z,62.87
2023-03-31T01:46:58.927Z,62.78
2023-03-31T01:49:25.577Z,62.78
2023-03-31T01:51:51.911Z,62.90
2023-03-31T01:54:18.304Z,62.80
2023-03-31T01:56:44.644Z,62.90
2023-03-31T01:59:10.974Z,62.80
2023-03-31T02:01:37.570Z,62.86
2023-03-31T02:04:04.383Z,62.70
2023-03-31T02:06:30.947Z,62.73
2023-03-31T02:08:57.411Z,62.65
2023-03-31T02:11:23.756Z,62.64
2023-03-31T02:13:50.047Z,62.79
2023-03-31T02:16:16.492Z,62.75
2023-03-31T02:18:43.064Z,62.67
2023-03-31T02:21:09.414Z,62.83
2023-03-31T02:23:35.822Z,62.96
2023-03-31T02:26:02.489Z,62.72
2023-03-31T02:28:29.313Z,63.04
2023-03-31T02:30:55.759Z,62.89
2023-03-31T02:33:22.435Z,62.74
2023-03-31T02:35:49.707Z,62.72
2023-03-31T02:38:16.107Z,62.98
2023-03-31T02:40:42.593Z,62.88
2023-03-31T02:43:09.224Z,62.93
2023-03-31T02:45:35.736Z,62.83
2023-03-31T02:48:02.505Z,62.74
2023-03-31T02:50:29.228Z,63.16
2023-03-31T02:52:55.643Z,62.66
2023-03-31T02:55:22.038Z,62.94
2023-03-31T02:57:48.363Z,62.76
2023-03-31T03:00:14.620Z,62.99
2023-03-31T03:02:41.472Z,62.94
2023-03-31T03:05:07.818Z,62.93
2023-03-31T03:07:34.272Z,63.06
2023-03-31T03:10:01.194Z,62.88
2023-03-31T03:12:27.631Z,62.96
2023-03-31T03:14:54.071Z,62.98
2023-03-31T03:17:20.429Z,62.87
2023-03-31T03:19:47.085Z,63.01
2023-03-31T03:22:13.418Z,62.87
2023-03-31T03:24:39.720Z,62.90
2023-03-31T03:27:06.089Z,63.22
2023-03-31T03:29:33.121Z,63.00
2023-03-31T03:31:59.466Z,62.84
2023-03-31T03:34:26.395Z,62.89
2023-03-31T03:36:52.707Z,63.04
2023-03-31T03:39:19.031Z,63.21
2023-03-31T03:41:45.435Z,63.08
2023-03-31T03:44:11.792Z,63.08
2023-03-31T03:46:38.161Z,62.96
2023-03-31T03:49:04.501Z,62.88
2023-03-31T03:51:30.938Z,62.98
2023-03-31T03:53:57.242Z,62.99
2023-03-31T03:56:23.575Z,63.16
2023-03-31T03:58:49.943Z,62.85
2023-03-31T04:01:16.281Z,62.90
2023-03-31T04:03:42.946Z,62.92
2023-03-31T04:06:09.430Z,62.88
2023-03-31T04:08:35.857Z,63.08
2023-03-31T04:11:02.466Z,62.92
2023-03-31T04:13:28.891Z,62.94
2023-03-31T04:15:55.621Z,62.91
2023-03-31T04:18:21.923Z,63.10
2023-03-31T04:20:48.874Z,62.69
2023-03-31T04:23:15.305Z,63.09
2023-03-31T04:25:41.643Z,62.80
2023-03-31T04:28:08.008Z,62.91
2023-03-31T04:30:34.543Z,62.93
2023-03-31T04:33:01.179Z,62.84
2023-03-31T04:35:27.702Z,63.00
2023-03-31T04:37:54.216Z,62.88
2023-03-31T04:40:20.887Z,63.14
2023-03-31T04:42:47.394Z,62.87
2023-03-31T04:45:13.767Z,63.07
2023-03-31T04:47:40.191Z,63.07
2023-03-31T04:50:06.596Z,62.93
2023-03-31T04:52:32.965Z,63.02
2023-03-31T04:54:59.395Z,62.87
2023-03-31T04:57:26.019Z,63.01
2023-03-31T04:59:52.387Z,63.08
2023-03-31T05:02:18.725Z,63.07
2023-03-31T05:04:45.502Z,63.10
2023-03-31T05:07:11.917Z,62.85
2023-03-31T05:09:38.690Z,62.99
2023-03-31T05:12:05.114Z,62.99
2023-03-31T05:14:31.625Z,62.98
2023-03-31T05:16:58.218Z,63.08
2023-03-31T05:19:24.833Z,62.82
2023-03-31T05:21:51.252Z,62.96
2023-03-31T05:24:17.700Z,63.05
2023-03-31T05:26:44.151Z,62.82
2023-03-31T05:29:10.578Z,63.01
2023-03-31T05:31:37.061Z,62.93
2023-03-31T05:34:03.452Z,62.84
2023-03-31T05:36:30.342Z,63.11
2023-03-31T05:38:56.778Z,63.00
2023-03-31T05:41:23.103Z,62.91
2023-03-31T05:43:49.764Z,63.07
2023-03-31T05:46:16.419Z,63.05
2023-03-31T05:48:43.027Z,63.12
2023-03-31T05:51:09.716Z,63.11
2023-03-31T05:53:36.537Z,63.48
2023-03-31T05:56:03.102Z,63.45
2023-03-31T05:58:30.115Z,64.01
2023-03-31T06:00:56.722Z,64.14
2023-03-31T06:03:23.298Z,64.38
2023-03-31T06:05:50.045Z,64.67
2023-03-31T06:08:16.473Z,64.50
2023-03-31T06:10:42.969Z,65.05
2023-03-31T06:13:09.341Z,65.07
2023-03-31T06:15:36.219Z,65.38
2023-03-31T06:18:02.822Z,65.51
2023-03-31T06:20:29.426Z,65.40
2023-03-31T06:22:55.924Z,65.76
2023-03-31T06:25:22.674Z,65.79
2023-03-31T06:27:49.208Z,65.73
2023-03-31T06:30:15.572Z,65.99
2023-03-31T06:32:41.916Z,66.03
2023-03-31T06:35:08.388Z,66.48
2023-03-31T06:37:34.753Z,66.55
2023-03-31T06:40:01.470Z,66.34
2023-03-31T06:42:28.604Z,66.56
2023-03-31T06:44:54.940Z,66.68
2023-03-31T06:47:21.542Z,66.79
2023-03-31T06:49:47.871Z,66.61
2023-03-31T06:52:14.517Z,66.92
2023-03-31T06:54:40.942Z,66.77
2023-03-31T06:57:07.229Z,66.96
2023-03-31T06:59:33.662Z,66.89
2023-03-31T07:02:00.252Z,66.74
2023-03-31T07:04:26.928Z,67.01
2023-03-31T07:06:53.369Z,66.88
2023-03-31T07:09:20.198Z,66.86
2023-03-31T07:11:46.577Z,66.98
2023-03-31T07:14:13.146Z,66.96
2023-03-31T07:16:39.633Z,66.93
2023-03-31T07:19:06.218Z,66.98
2023-03-31T07:21:32.529Z,67.15
2023-03-31T07:23:58.969Z,66.92
2023-03-31T07:26:25.352Z,66.86
2023-03-31T07:28:51.736Z,66.68
2023-03-31T07:31:18.060Z,66.76
2023-03-31T07:33:44.481Z,66.70
2023-03-31T07:36:13.803Z,66.62
2023-03-31T07:38:41.059Z,66.67
2023-03-31T07:41:09.901Z,66.29
2023-03-31T07:43:36.853Z,66.44
2023-03-31T07:46:03.785Z,66.29
2023-03-31T07:48:30.524Z,66.34
2023-03-31T07:50:56.904Z,66.28
2023-03-31T07:53:23.320Z,66.26
2023-03-31T07:55:49.887Z,66.27
2023-03-31T07:58:16.828Z,66.29
2023-03-31T08:00:43.354Z,66.20
2023-03-31T08:03:09.756Z,66.25
2023-03-31T08:05:36.211Z,66.05
2023-03-31T08:08:02.679Z,66.08
2023-03-31T08:10:29.000Z,66.31
2023-03-31T08:12:55.430Z,66.14
2023-03-31T08:15:21.816Z,66.22
2023-03-31T08:17:48.519Z,66.46
2023-03-31T08:20:15.338Z,66.25
2023-03-31T08:22:41.821Z,66.05
2023-03-31T08:25:08.466Z,66.40
2023-03-31T08:27:34.841Z,66.13
2023-03-31T08:30:01.184Z,65.96
2023-03-31T08:32:28.061Z,66.53
2023-03-31T08:34:54.507Z,66.45
2023-03-31T08:37:20.930Z,66.32
2023-03-31T08:39:47.512Z,66.65
2023-03-31T08:42:15.512Z,66.36
2023-03-31T08:44:42.940Z,65.98
2023-03-31T08:47:09.378Z,66.67
2023-03-31T08:49:35.796Z,66.72
2023-03-31T08:52:02.494Z,66.56
2023-03-31T08:54:28.954Z,66.53
2023-03-31T08:56:55.644Z,66.31
2023-03-31T08:59:22.175Z,66.26
2023-03-31T09:01:56.290Z,66.51
2023-03-31T09:04:23.616Z,66.12
2023-03-31T09:06:50.005Z,66.53
2023-03-31T09:09:16.425Z,65.87
2023-03-31T09:11:42.807Z,65.66
2023-03-31T09:14:09.167Z,65.85
2023-03-31T09:16:35.532Z,65.88
2023-03-31T09:19:01.899Z,65.48
2023-03-31T09:21:28.865Z,65.86
2023-03-31T09:23:55.246Z,65.53
2023-03-31T09:26:21.749Z,65.43
2023-03-31T09:28:48.103Z,65.70
2023-03-31T09:31:14.681Z,65.46
2023-03-31T09:33:41.498Z,65.52
2023-03-31T09:36:07.933Z,65.52
2023-03-31T09:38:34.617Z,65.54
2023-03-31T09:41:01.950Z,65.47
2023-03-31T09:43:28.316Z,65.41
2023-03-31T09:46:14.730Z,65.24
2023-03-31T09:48:40.991Z,65.15
2023-03-31T09:51:07.585Z,65.13
2023-03-31T09:53:34.187Z,65.26
2023-03-31T09:56:01.182Z,65.44
2023-03-31T09:58:27.726Z,65.58
2023-03-31T10:00:54.241Z,65.58
2023-03-31T10:03:20.583Z,65.58
2023-03-31T10:05:46.878Z,65.60
2023-03-31T10:08:13.201Z,65.58
2023-03-31T10:10:39.593Z,65.56
2023-03-31T10:13:06.013Z,65.56
2023-03-31T10:15:32.679Z,65.54
2023-03-31T10:17:59.252Z,65.42
2023-03-31T10:20:26.776Z,65.43
2023-03-31T10:22:53.241Z,65.48
2023-03-31T10:25:20.276Z,65.38
2023-03-31T10:27:46.882Z,65.77
2023-03-31T10:30:13.282Z,65.61
2023-03-31T10:32:39.934Z,65.79
2023-03-31T10:35:06.334Z,65.76
2023-03-31T10:37:32.646Z,65.72
2023-03-31T10:39:59.290Z,65.86
2023-03-31T10:42:25.865Z,65.78
2023-03-31T10:44:52.300Z,65.94
2023-03-31T10:47:18.905Z,65.93
2023-03-31T10:49:45.465Z,66.32
2023-03-31T10:52:11.824Z,66.16
2023-03-31T10:54:38.232Z,65.99
2023-03-31T10:57:04.988Z,66.01
2023-03-31T10:59:31.852Z,66.08
2023-03-31T11:02:00.318Z,66.36
2023-03-31T11:04:27.418Z,66.34
2023-03-31T11:06:53.748Z,66.04
2023-03-31T11:09:20.351Z,66.22
2023-03-31T11:11:47.137Z,66.18
2023-03-31T11:14:13.588Z,66.17
2023-03-31T11:16:40.124Z,66.47
2023-03-31T11:19:06.972Z,66.44
2023-03-31T11:21:33.429Z,66.59
2023-03-31T11:23:59.788Z,66.26
2023-03-31T11:26:26.226Z,66.34
2023-03-31T11:28:52.707Z,66.53
2023-03-31T11:31:19.426Z,67.31
2023-03-31T11:33:46.173Z,66.17
2023-03-31T11:36:12.781Z,65.96
2023-03-31T11:38:39.158Z,66.02
2023-03-31T11:41:05.728Z,65.84
2023-03-31T11:43:32.527Z,65.67
2023-03-31T11:45:58.962Z,65.92
2023-03-31T11:48:25.469Z,65.84
2023-03-31T11:50:52.147Z,65.95
2023-03-31T11:53:18.501Z,65.88
2023-03-31T11:55:44.920Z,65.60
2023-03-31T11:58:11.571Z,65.84
2023-03-31T12:00:38.507Z,65.65
2023-03-31T12:03:05.263Z,65.77
2023-03-31T12:05:31.801Z,65.76
2023-03-31T12:07:58.533Z,66.04
2023-03-31T12:10:25.043Z,65.89
2023-03-31T12:12:51.354Z,65.73
2023-03-31T12:15:18.021Z,65.63
2023-03-31T12:17:44.469Z,65.88
2023-03-31T12:20:10.955Z,65.80
2023-03-31T12:22:37.473Z,65.71
2023-03-31T12:25:03.802Z,65.93
2023-03-31T12:27:30.233Z,66.07
2023-03-31T12:29:56.561Z,66.17
2023-03-31T12:32:23.510Z,65.98
2023-03-31T12:34:50.115Z,66.24
2023-03-31T12:37:16.544Z,66.13
2023-03-31T12:39:42.874Z,66.33
2023-03-31T12:42:09.740Z,66.05
2023-03-31T12:44:36.112Z,66.51
2023-03-31T12:47:02.553Z,66.26
2023-03-31T12:49:29.149Z,66.19
2023-03-31T12:51:55.701Z,66.48
2023-03-31T12:54:22.356Z,66.23
2023-03-31T12:56:48.754Z,66.09
2023-03-31T12:59:15.490Z,65.77
2023-03-31T13:01:42.014Z,65.81
2023-03-31T13:04:08.457Z,65.92
2023-03-31T13:06:34.909Z,65.74
2023-03-31T13:09:01.549Z,66.17
2023-03-31T13:11:28.395Z,65.51
2023-03-31T13:14:00.301Z,65.85
2023-03-31T13:16:27.617Z,65.85
2023-03-31T13:18:54.007Z,65.79
2023-03-31T13:21:20.665Z,65.92
2023-03-31T13:23:46.953Z,65.65
2023-03-31T13:26:13.569Z,65.66
2023-03-31T13:28:40.065Z,65.61
2023-03-31T13:31:06.879Z,65.93
2023-03-31T13:33:33.537Z,65.71
2023-03-31T13:36:00.027Z,65.61
2023-03-31T13:38:26.486Z,65.83
2023-03-31T13:40:53.071Z,65.79
2023-03-31T13:43:19.606Z,65.65
2023-03-31T13:45:46.160Z,65.77
2023-03-31T13:48:13.120Z,65.70
2023-03-31T13:50:39.583Z,65.73
2023-03-31T13:53:05.962Z,65.85
2023-03-31T13:55:32.537Z,65.79
2023-03-31T13:57:58.857Z,65.49
2023-03-31T14:00:25.260Z,65.58
2023-03-31T14:02:51.974Z,65.70
2023-03-31T14:05:18.654Z,65.38
2023-03-31T14:07:45.151Z,65.61
2023-03-31T14:10:11.480Z,65.56
2023-03-31T14:12:38.201Z,65.47
2023-03-31T14:15:04.755Z,65.57
2023-03-31T14:17:31.268Z,65.61
2023-03-31T14:19:57.730Z,65.54
2023-03-31T14:22:24.762Z,65.67
2023-03-31T14:24:51.159Z,65.62
2023-03-31T14:27:17.616Z,65.43
2023-03-31T14:29:44.122Z,65.63
2023-03-31T14:32:11.131Z,65.59
2023-03-31T14:34:38.610Z,65.43
2023-03-31T14:37:05.349Z,65.55
2023-03-31T14:39:31.786Z,65.52
2023-03-31T14:41:58.132Z,65.43
2023-03-31T14:44:24.797Z,65.44
2023-03-31T14:46:51.465Z,65.39
2023-03-31T14:49:18.112Z,65.32
2023-03-31T14:51:44.622Z,65.62
2023-03-31T14:54:11.045Z,65.60
2023-03-31T14:56:37.776Z,65.71
2023-03-31T14:59:04.224Z,65.84
2023-03-31T15:01:30.518Z,65.79
2023-03-31T15:03:57.095Z,65.46
2023-03-31T15:06:23.470Z,65.79
2023-03-31T15:08:49.884Z,65.72
2023-03-31T15:11:19.093Z,65.52
2023-03-31T15:13:52.973Z,65.95
2023-03-31T15:16:28.110Z,65.69
2023-03-31T15:18:54.422Z,65.64
2023-03-31T15:21:20.814Z,65.79
2023-03-31T15:23:47.335Z,65.53
2023-03-31T15:26:14.009Z,65.83
2023-03-31T15:28:40.537Z,65.83
2023-03-31T15:33:53.619Z,65.49
2023-03-31T15:36:20.210Z,65.52
2023-03-31T15:38:46.646Z,65.84
2023-03-31T15:41:13.035Z,65.38
2023-03-31T15:43:39.307Z,65.53
2023-03-31T15:46:05.999Z,65.44
2023-03-31T15:48:32.350Z,65.41
2023-03-31T15:50:58.700Z,65.43
2023-03-31T15:53:25.496Z,65.48
2023-03-31T15:55:51.837Z,65.72
2023-03-31T15:58:18.245Z,65.57
2023-03-31T16:00:44.640Z,65.61
2023-03-31T16:03:11.060Z,65.60
2023-03-31T16:05:47.340Z,65.68
2023-03-31T16:08:20.265Z,65.69
2023-03-31T16:10:46.910Z,65.71
2023-03-31T16:13:13.456Z,65.77
2023-03-31T16:15:40.029Z,65.58
2023-03-31T16:18:06.842Z,65.61
2023-03-31T16:20:33.243Z,65.39
2023-03-31T16:22:59.772Z,65.35
2023-03-31T16:25:26.319Z,65.60
2023-03-31T16:27:52.757Z,65.37
2023-03-31T16:30:19.567Z,65.30
2023-03-31T16:32:46.107Z,65.58
2023-03-31T16:35:12.646Z,65.60
2023-03-31T16:37:39.159Z,65.48
2023-03-31T16:40:05.676Z,65.46
2023-03-31T16:42:32.373Z,65.28
2023-03-31T16:45:12.754Z,65.53
2023-03-31T16:47:43.820Z,65.45
2023-03-31T16:50:12.190Z,65.45
2023-03-31T16:52:39.334Z,65.65
2023-03-31T16:55:06.118Z,65.52
2023-03-31T16:57:33.533Z,65.33
2023-03-31T16:59:59.953Z,65.60
2023-03-31T17:02:26.477Z,65.73
2023-03-31T17:04:56.619Z,65.37
2023-03-31T17:07:23.357Z,65.38
2023-03-31T17:09:49.720Z,65.40
2023-03-31T17:12:16.434Z,65.37
2023-03-31T17:14:42.768Z,65.49
2023-03-31T17:17:09.453Z,65.48
2023-03-31T17:19:35.871Z,65.27
2023-03-31T17:22:02.277Z,65.32
2023-03-31T17:24:28.860Z,65.51
2023-03-31T17:26:55.200Z,65.49
2023-03-31T17:29:21.798Z,65.72
2023-03-31T17:31:48.924Z,65.70
2023-03-31T17:34:15.267Z,65.73
2023-03-31T17:36:41.636Z,65.59
2023-03-31T17:39:08.166Z,65.68
2023-03-31T17:41:34.458Z,65.68
2023-03-31T17:44:00.784Z,65.74
2023-03-31T17:46:27.723Z,65.73
2023-03-31T17:48:54.434Z,65.48
2023-03-31T17:51:20.828Z,65.76
2023-03-31T17:53:47.361Z,65.43
2023-03-31T17:56:13.741Z,65.63
2023-03-31T17:58:40.298Z,65.68
2023-03-31T18:01:06.795Z,65.62
2023-03-31T18:03:33.327Z,65.61
2023-03-31T18:05:59.756Z,65.54
2023-03-31T18:08:26.126Z,65.44
2023-03-31T18:10:52.965Z,65.47
2023-03-31T18:13:19.267Z,65.72
2023-03-31T18:15:45.896Z,65.45
2023-03-31T18:18:12.459Z,65.77
2023-03-31T18:20:39.146Z,65.76
2023-03-31T18:23:05.485Z,65.54
2023-03-31T18:25:32.232Z,65.76
2023-03-31T18:27:58.710Z,65.81
2023-03-31T18:30:25.430Z,65.88
2023-03-31T18:32:52.095Z,65.54
2023-03-31T18:35:18.949Z,65.95
2023-03-31T18:37:45.819Z,65.86
2023-03-31T18:40:12.283Z,65.72
2023-03-31T18:42:38.908Z,65.70
2023-03-31T18:45:05.568Z,65.55
2023-03-31T18:47:32.003Z,65.63
2023-03-31T18:49:58.432Z,65.76
2023-03-31T18:52:24.957Z,65.77
2023-03-31T18:54:51.736Z,65.73
2023-03-31T18:57:18.196Z,65.73
2023-03-31T18:59:45.334Z,65.70
2023-03-31T19:02:11.805Z,65.75
2023-03-31T19:04:38.810Z,65.69
2023-03-31T19:07:05.389Z,65.53
2023-03-31T19:09:31.904Z,65.84
2023-03-31T19:11:59.120Z,65.53
2023-03-31T19:14:25.989Z,65.67
2023-03-31T19:16:52.553Z,65.66
2023-03-31T19:19:19.432Z,65.79
2023-03-31T19:21:46.072Z,65.63
2023-03-31T19:24:12.535Z,65.70
2023-03-31T19:26:39.313Z,65.82
2023-03-31T19:29:05.869Z,65.69
2023-03-31T19:31:32.694Z,65.67
2023-03-31T19:33:59.053Z,65.73
2023-03-31T19:36:25.418Z,65.95
2023-03-31T19:38:52.516Z,65.41
2023-03-31T19:41:19.346Z,65.57
2023-03-31T19:43:45.678Z,65.85
2023-03-31T19:46:12.402Z,65.66
2023-03-31T19:48:38.788Z,65.57
2023-03-31T19:51:05.105Z,65.76
2023-03-31T19:53:31.424Z,65.78
2023-03-31T19:55:57.795Z,65.64
2023-03-31T19:58:24.554Z,65.57
2023-03-31T20:00:51.361Z,65.48
2023-03-31T20:03:18.211Z,65.66
2023-03-31T20:05:44.979Z,65.82
2023-03-31T20:08:11.829Z,65.78
2023-03-31T20:10:38.474Z,65.70
2023-03-31T20:13:05.086Z,65.54
2023-03-31T20:15:31.575Z,65.74
2023-03-31T20:17:58.263Z,65.59
2023-03-31T20:20:25.105Z,65.72
2023-03-31T20:22:51.524Z,65.72
2023-03-31T20:25:17.944Z,65.62
2023-03-31T20:27:44.517Z,65.77
2023-03-31T20:30:10.842Z,65.78
2023-03-31T20:32:37.493Z,65.39
2023-03-31T20:35:03.862Z,65.71
2023-03-31T20:37:30.236Z,65.83
2023-03-31T20:39:56.717Z,65.57
2023-03-31T20:42:23.646Z,65.62
2023-03-31T20:44:50.234Z,65.49
2023-03-31T20:47:16.608Z,65.66
2023-03-31T20:49:43.330Z,65.67
2023-03-31T20:52:10.011Z,65.67
2023-03-31T20:54:36.690Z,65.70
2023-03-31T20:57:03.708Z,65.44
2023-03-31T20:59:30.180Z,65.46
2023-03-31T21:01:56.558Z,65.50
2023-03-31T21:04:22.899Z,65.55
2023-03-31T21:06:49.214Z,65.63
2023-03-31T21:09:16.016Z,65.35
2023-03-31T21:11:42.739Z,65.41
2023-03-31T21:14:09.794Z,65.65
2023-03-31T21:16:36.836Z,65.34
2023-03-31T21:19:03.336Z,65.60
2023-03-31T21:21:29.652Z,65.69
2023-03-31T21:23:55.999Z,65.46
2023-03-31T21:26:22.376Z,65.56
2023-03-31T21:28:48.672Z,65.45
2023-03-31T21:31:15.234Z,65.34
2023-03-31T21:33:41.586Z,65.52
2023-03-31T21:36:08.121Z,65.52
2023-03-31T21:38:34.496Z,65.54
2023-03-31T21:41:00.931Z,65.22
2023-03-31T21:43:27.306Z,65.54
2023-03-31T21:45:53.730Z,65.23
2023-03-31T21:48:21.637Z,65.52
2023-03-31T21:50:48.437Z,65.27
2023-03-31T21:53:14.858Z,65.44
2023-03-31T21:55:41.107Z,65.41
2023-03-31T21:58:07.482Z,65.09
2023-03-31T22:00:33.842Z,65.19
2023-03-31T22:05:30.148Z,65.49
2023-03-31T22:07:57.411Z,65.16
2023-03-31T22:10:24.052Z,65.64
2023-03-31T22:12:50.484Z,65.20
2023-03-31T22:15:16.890Z,65.44
2023-03-31T22:17:43.355Z,65.41
2023-03-31T22:20:09.876Z,65.37
2023-03-31T22:22:36.331Z,65.26
2023-03-31T22:25:02.799Z,65.07
2023-03-31T22:27:29.107Z,65.16
2023-03-31T22:29:55.490Z,65.02
2023-03-31T22:32:22.010Z,65.03
2023-03-31T22:34:48.395Z,64.96
2023-03-31T22:37:14.680Z,65.26
2023-03-31T22:39:41.134Z,65.24
2023-03-31T22:42:07.471Z,65.21
2023-03-31T22:44:33.978Z,65.33
2023-03-31T22:47:00.493Z,65.16
2023-03-31T22:49:26.916Z,65.04
2023-03-31T22:51:53.538Z,64.81
2023-03-31T22:54:19.864Z,65.16
2023-03-31T22:56:46.188Z,65.09
2023-03-31T22:59:12.942Z,65.00
2023-03-31T23:01:39.319Z,64.96
2023-03-31T23:04:05.749Z,64.74
2023-03-31T23:06:33.553Z,64.97
2023-03-31T23:09:01.195Z,64.76
2023-03-31T23:11:27.706Z,65.08
2023-03-31T23:13:54.254Z,64.89
2023-03-31T23:16:20.677Z,65.07
2023-03-31T23:18:47.351Z,64.90
2023-03-31T23:21:13.967Z,64.90
2023-03-31T23:23:40.433Z,64.76
2023-03-31T23:26:07.007Z,65.05
2023-03-31T23:28:33.536Z,64.66
2023-03-31T23:31:00.008Z,64.64
2023-03-31T23:33:26.355Z,64.95
2023-03-31T23:35:52.857Z,64.77
2023-03-31T23:38:19.453Z,65.05
2023-03-31T23:40:45.789Z,65.05
2023-03-31T23:43:12.328Z,64.98
2023-03-31T23:45:38.703Z,64.69
2023-03-31T23:48:05.244Z,64.91
2023-03-31T23:50:31.905Z,64.96
2023-03-31T23:52:58.696Z,64.91
2023-03-31T23:55:25.575Z,64.75
2023-03-31T23:57:51.960Z,64.66
